»·PEaware :: N75232 KSBA-KBUR

N75232 :: KSBA-KBUR

FLIGHT INFORMATION

Flight Status: Arrived
Operator: Privately registered:
United States
More flights under this callsign
Pilot: Daniel B. (28719)
Aircraft: CESSNA 172 SKYHAWK
(C172)
More flights by this aircraft type
Origin: KSBA Santa Barbara Mun
United States
Destination: KBUR Bob Hope-Burbank
United States
More flights between these airports :: More routes between these airports
Route: KWANG CMA CMA078 TOAKS
File this flight plan on PilotEdge
Remarks:
Altitude:
(Current/Filed)
5,000ft
Speed:
(Current/Filed)
115kts
Departed: 18-Apr-20 05:45 PM
Arrived: 18-Apr-20 06:31 PM
Distance/Time
Traveled:
75nm/0:46
Distance/Time
To Go:
Arrived

Flight Plot

Page will automatically refresh every two minutes.


Map Options




Map Legend


Flown Route
Filed Route
Departure Airport
Arrival Airport
Navaid (VOR, NDB)
Fix

Horizontal Profiles

Position Reports

Time Latitude Longitude Heading Altitude Ground
Speed
18-Apr-20 17:04 34.422664 -119.835593 340 10ft 0kts
18-Apr-20 17:05 34.422664 -119.835593 340 10ft 0kts
18-Apr-20 17:06 34.422664 -119.835593 340 10ft 0kts
18-Apr-20 17:07 34.422664 -119.835593 340 10ft 0kts
18-Apr-20 17:08 34.422664 -119.835593 340 10ft 0kts
18-Apr-20 17:09 34.422664 -119.835593 340 10ft 0kts
18-Apr-20 17:10 34.422664 -119.835593 340 10ft 0kts
18-Apr-20 17:11 34.422664 -119.835593 340 10ft 0kts
18-Apr-20 17:12 34.422664 -119.835593 340 10ft 0kts
18-Apr-20 17:13 34.422664 -119.835593 340 10ft 0kts
18-Apr-20 17:14 34.422664 -119.835593 340 10ft 0kts
18-Apr-20 17:15 34.422664 -119.835593 340 10ft 0kts
18-Apr-20 17:16 34.422664 -119.835593 340 10ft 0kts
18-Apr-20 17:17 34.422664 -119.835593 340 10ft 0kts
18-Apr-20 17:18 34.422664 -119.835593 340 10ft 0kts
18-Apr-20 17:19 34.422664 -119.835593 340 10ft 0kts
18-Apr-20 17:20 34.422664 -119.835593 340 10ft 0kts
18-Apr-20 17:21 34.422664 -119.835593 340 10ft 0kts
18-Apr-20 17:22 34.422664 -119.835593 340 10ft 0kts
18-Apr-20 17:23 34.422664 -119.835593 340 10ft 0kts
18-Apr-20 17:24 34.422664 -119.835593 340 10ft 0kts
18-Apr-20 17:25 34.422664 -119.835593 340 10ft 0kts
18-Apr-20 17:26 34.422664 -119.835593 340 10ft 0kts
18-Apr-20 17:27 34.422664 -119.835593 340 10ft 0kts
18-Apr-20 17:28 34.422664 -119.835593 340 10ft 0kts
18-Apr-20 17:29 34.422664 -119.835593 340 10ft 0kts
18-Apr-20 17:30 34.422664 -119.835593 340 10ft 0kts
18-Apr-20 17:31 34.422664 -119.835593 340 10ft 0kts
18-Apr-20 17:32 34.422664 -119.835593 340 10ft 0kts
18-Apr-20 17:33 34.422664 -119.835593 340 10ft 0kts
18-Apr-20 17:34 34.422664 -119.835593 340 10ft 0kts
18-Apr-20 17:35 34.422664 -119.835593 340 10ft 0kts
18-Apr-20 17:36 34.422664 -119.835593 340 10ft 0kts
18-Apr-20 17:37 34.422629 -119.835626 209 10ft 0kts
18-Apr-20 17:38 34.423709 -119.837438 346 12ft 17kts
18-Apr-20 17:39 34.426731 -119.836738 90 10ft 17kts
18-Apr-20 17:40 34.426862 -119.835163 18 10ft 0kts
18-Apr-20 17:41 34.426905 -119.835132 40 10ft 6kts
18-Apr-20 17:42 34.427139 -119.834408 6 10ft 0kts
18-Apr-20 17:43 34.427528 -119.834649 319 10ft 7kts
18-Apr-20 17:44 34.427690 -119.852014 264 549ft 79kts
18-Apr-20 17:45 34.425123 -119.878175 256 1593ft 76kts
18-Apr-20 17:46 34.411643 -119.875789 100 2509ft 101kts
18-Apr-20 17:47 34.407840 -119.842941 96 3431ft 99kts
18-Apr-20 17:48 34.406206 -119.809436 92 4229ft 105kts
18-Apr-20 17:49 34.399184 -119.775604 115 4969ft 108kts
18-Apr-20 17:50 34.385398 -119.736879 112 5059ft 130kts
18-Apr-20 17:51 34.373040 -119.695369 113 4997ft 130kts
18-Apr-20 17:52 34.358733 -119.654546 110 4932ft 132kts
18-Apr-20 17:53 34.345583 -119.613536 112 4977ft 126kts
18-Apr-20 17:54 34.334415 -119.573490 108 5093ft 128kts
18-Apr-20 17:55 34.321301 -119.532536 111 5086ft 131kts
18-Apr-20 17:56 34.311424 -119.489476 102 5068ft 137kts
18-Apr-20 17:57 34.301211 -119.444965 102 5012ft 137kts
18-Apr-20 17:58 34.292307 -119.401153 100 5029ft 131kts
18-Apr-20 17:59 34.284194 -119.357776 104 5076ft 133kts
18-Apr-20 18:00 34.265788 -119.319621 123 5045ft 135kts
18-Apr-20 18:01 34.255771 -119.276104 96 5014ft 134kts
18-Apr-20 18:02 34.249598 -119.231857 101 5015ft 134kts
18-Apr-20 18:03 34.236794 -119.190490 120 5028ft 133kts
18-Apr-20 18:04 34.229565 -119.146970 94 5045ft 133kts
18-Apr-20 18:05 34.225475 -119.102472 92 5054ft 133kts
18-Apr-20 18:06 34.223221 -119.057809 89 4999ft 132kts
18-Apr-20 18:07 34.219399 -119.014004 96 4993ft 130kts
18-Apr-20 18:08 34.215875 -118.970626 92 5005ft 129kts
18-Apr-20 18:09 34.211913 -118.927418 94 5012ft 129kts
18-Apr-20 18:10 34.207534 -118.884534 93 5062ft 128kts
18-Apr-20 18:11 34.203383 -118.840784 93 5055ft 131kts
18-Apr-20 18:12 34.199402 -118.796920 87 5047ft 131kts
18-Apr-20 18:13 34.201392 -118.752945 82 5046ft 131kts
18-Apr-20 18:14 34.202557 -118.709058 94 5043ft 131kts
18-Apr-20 18:15 34.200459 -118.666877 87 5056ft 130kts
18-Apr-20 18:16 34.201399 -118.632329 89 5054ft 129kts
18-Apr-20 18:17 34.199104 -118.605711 99 4756ft 103kts
18-Apr-20 18:18 34.200050 -118.581040 88 4337ft 107kts
18-Apr-20 18:19 34.200020 -118.557701 100 3948ft 90kts
18-Apr-20 18:20 34.198455 -118.537544 87 3581ft 89kts
18-Apr-20 18:22 34.199552 -118.519132 95 3240ft 87kts
18-Apr-20 18:23 34.199816 -118.502624 96 2990ft 79kts
18-Apr-20 18:24 34.199015 -118.486857 95 2697ft 79kts
18-Apr-20 18:25 34.198628 -118.471429 89 2409ft 81kts
18-Apr-20 18:26 34.199464 -118.454092 94 2158ft 90kts
18-Apr-20 18:27 34.198979 -118.434496 95 1886ft 95kts
18-Apr-20 18:28 34.198845 -118.414259 97 1534ft 89kts
18-Apr-20 18:29 34.198270 -118.395013 92 1227ft 86kts
18-Apr-20 18:30 34.198059 -118.376824 94 908ft 66kts
18-Apr-20 18:31 34.197835 -118.363211 90 720ft 28kts
18-Apr-20 18:32 34.198599 -118.360246 1 717ft 0kts
18-Apr-20 18:33 34.198599 -118.360246 1 717ft 0kts
18-Apr-20 18:34 34.198599 -118.360246 1 717ft 0kts
18-Apr-20 18:35 34.198917 -118.358077 42 714ft 7kts
18-Apr-20 18:36 34.201704 -118.358982 271 727ft 11kts
18-Apr-20 18:37 34.201527 -118.359230 258 727ft 0kts
18-Apr-20 18:38 34.201526 -118.359234 254 727ft 0kts
18-Apr-20 18:39 34.201526 -118.359234 254 727ft 0kts
18-Apr-20 18:39 34.201526 -118.359234 254 727ft 0kts
18-Apr-20 18:41 34.201526 -118.359234 254 727ft 0kts
18-Apr-20 18:42 34.201526 -118.359234 254 727ft 0kts
18-Apr-20 18:42 34.201526 -118.359234 254 727ft 0kts
18-Apr-20 18:43 34.201526 -118.359234 254 727ft 0kts
18-Apr-20 18:45 34.201526 -118.359234 254 727ft 0kts

Navigation Log

Ident Type
Flight plan parsing failed, navigation log unavailable